Terminal Aerodrome Forecast
Issued by NWS Upton, NY

Home | Current Version | Previous Version | Text Only | Print | Product List | Glossary On
Versions: 1 2 3 4 5 6 7 8 9 10 11 12 13 14 15 16 17 18 19 20 21 22 23 24 25 26 27 28 29 30
000
FTUS41 KOKX 191935 AAB
TAFLGA
TAF AMD
KLGA 191935Z 1920/2018 15014KT P6SM BKN250
     FM200200 12010KT P6SM BKN250
     FM200400 09012KT P6SM OVC120
     FM200800 10019G24KT 6SM -RA BKN025 OVC100
     FM201300 11024G29KT 3SM -RA BR OVC010 WS020/13050KT
     FM201700 10018G24KT 1SM RA BR OVC007 WS020/16045KT=

USA.gov is the U.S. government's official web portal to all federal, state and local government web resources and services.